createdAt,value
2018-09-28T00:02:21.561Z,99.90
2018-09-28T00:04:50.063Z,99.90
2018-09-28T00:07:18.511Z,99.90
2018-09-28T00:09:46.937Z,99.90
2018-09-28T00:12:15.464Z,99.90
2018-09-28T00:14:43.965Z,99.90
2018-09-28T00:17:12.387Z,99.90
2018-09-28T00:19:40.852Z,99.90
2018-09-28T00:22:09.301Z,99.90
2018-09-28T00:24:37.739Z,99.90
2018-09-28T00:27:06.168Z,99.90
2018-09-28T00:29:34.858Z,99.90
2018-09-28T00:32:03.298Z,99.90
2018-09-28T00:34:31.734Z,99.90
2018-09-28T00:37:00.189Z,99.90
2018-09-28T00:39:28.627Z,99.90
2018-09-28T00:41:57.054Z,99.90
2018-09-28T00:44:25.487Z,99.90
2018-09-28T00:46:53.908Z,99.90
2018-09-28T00:49:22.342Z,99.90
2018-09-28T00:51:50.791Z,99.90
2018-09-28T00:54:19.949Z,99.90
2018-09-28T00:56:48.405Z,99.90
2018-09-28T00:59:16.921Z,99.90
2018-09-28T01:01:45.434Z,99.90
2018-09-28T01:04:13.855Z,99.90
2018-09-28T01:06:42.284Z,99.90
2018-09-28T01:09:12.770Z,99.90
2018-09-28T01:11:41.274Z,99.90
2018-09-28T01:14:09.844Z,99.90
2018-09-28T01:16:38.262Z,99.90
2018-09-28T01:19:06.830Z,99.90
2018-09-28T01:21:35.625Z,99.90
2018-09-28T01:24:04.074Z,99.90
2018-09-28T01:26:32.533Z,99.90
2018-09-28T01:29:00.977Z,99.90
2018-09-28T01:31:29.748Z,99.90
2018-09-28T01:33:58.444Z,99.90
2018-09-28T01:36:27.723Z,99.90
2018-09-28T01:38:56.186Z,99.90
2018-09-28T01:41:24.608Z,99.90
2018-09-28T01:43:53.153Z,99.90
2018-09-28T01:46:21.644Z,99.90
2018-09-28T01:48:50.072Z,99.90
2018-09-28T01:51:18.518Z,99.90
2018-09-28T01:53:46.936Z,99.90
2018-09-28T01:56:15.490Z,99.90
2018-09-28T01:58:44.053Z,99.90
2018-09-28T02:01:12.486Z,99.90
2018-09-28T02:03:41.609Z,99.90
2018-09-28T02:06:10.086Z,99.90
2018-09-28T02:08:38.515Z,99.90
2018-09-28T02:11:06.982Z,99.90
2018-09-28T02:13:35.566Z,99.90
2018-09-28T02:16:03.983Z,99.90
2018-09-28T02:18:32.394Z,99.90
2018-09-28T02:21:00.816Z,99.90
2018-09-28T02:23:29.250Z,99.90
2018-09-28T02:25:57.737Z,99.90
2018-09-28T02:28:26.172Z,99.90
2018-09-28T02:30:54.604Z,99.90
2018-09-28T02:33:23.190Z,99.90
2018-09-28T02:35:51.676Z,99.90
2018-09-28T02:38:20.108Z,99.90
2018-09-28T02:40:48.558Z,99.90
2018-09-28T02:43:17.043Z,99.90
2018-09-28T02:45:45.473Z,99.90
2018-09-28T02:48:14.000Z,99.90
2018-09-28T02:50:42.489Z,99.90
2018-09-28T02:53:15.150Z,99.90
2018-09-28T02:55:43.630Z,99.90
2018-09-28T02:58:12.045Z,99.90
2018-09-28T03:00:40.614Z,99.90
2018-09-28T03:03:09.512Z,99.90
2018-09-28T03:05:38.200Z,99.90
2018-09-28T03:08:07.738Z,99.90
2018-09-28T03:10:36.375Z,99.90
2018-09-28T03:13:05.270Z,99.90
2018-09-28T03:15:33.712Z,99.90
2018-09-28T03:18:02.337Z,99.90
2018-09-28T03:20:30.843Z,99.90
2018-09-28T03:22:59.271Z,99.90
2018-09-28T03:25:27.705Z,99.90
2018-09-28T03:27:56.144Z,99.90
2018-09-28T03:30:24.580Z,99.90
2018-09-28T03:32:53.029Z,99.90
2018-09-28T03:35:21.479Z,99.90
2018-09-28T03:37:49.923Z,99.90
2018-09-28T03:40:18.352Z,99.90
2018-09-28T03:42:46.805Z,99.90
2018-09-28T03:45:15.234Z,99.90
2018-09-28T03:47:46.507Z,99.90
2018-09-28T03:50:14.973Z,99.90
2018-09-28T03:52:43.499Z,99.90
2018-09-28T03:55:12.321Z,99.90
2018-09-28T03:57:40.753Z,99.90
2018-09-28T04:00:10.428Z,99.90
2018-09-28T04:02:39.607Z,99.90
2018-09-28T04:05:08.033Z,99.90
2018-09-28T04:07:36.867Z,99.90
2018-09-28T04:10:06.176Z,99.90
2018-09-28T04:12:34.959Z,99.90
2018-09-28T04:15:03.459Z,99.90
2018-09-28T04:17:31.869Z,99.90
2018-09-28T04:20:00.378Z,99.90
2018-09-28T04:22:28.831Z,99.90
2018-09-28T04:24:57.339Z,99.90
2018-09-28T04:27:25.768Z,99.90
2018-09-28T04:29:54.200Z,99.90
2018-09-28T04:32:22.702Z,99.90
2018-09-28T04:34:51.259Z,99.90
2018-09-28T04:37:19.735Z,99.90
2018-09-28T04:39:48.200Z,99.90
2018-09-28T04:42:16.684Z,99.90
2018-09-28T04:44:45.126Z,99.90
2018-09-28T04:47:13.717Z,99.90
2018-09-28T04:49:42.255Z,99.90
2018-09-28T04:52:10.717Z,99.90
2018-09-28T04:54:39.159Z,99.90
2018-09-28T04:57:07.589Z,99.90
2018-09-28T04:59:36.033Z,99.90
2018-09-28T05:02:04.503Z,99.90
2018-09-28T05:04:32.972Z,99.90
2018-09-28T05:07:01.429Z,99.90
2018-09-28T05:09:29.877Z,99.90
2018-09-28T05:11:58.324Z,99.90
2018-09-28T05:14:26.759Z,99.90
2018-09-28T05:16:55.236Z,99.90
2018-09-28T05:19:23.711Z,99.90
2018-09-28T05:21:52.266Z,99.90
2018-09-28T05:24:20.742Z,99.90
2018-09-28T05:26:49.196Z,99.90
2018-09-28T05:29:17.622Z,99.90
2018-09-28T05:31:46.488Z,99.90
2018-09-28T05:34:14.901Z,99.90
2018-09-28T05:36:44.144Z,99.90
2018-09-28T05:39:12.703Z,99.90
2018-09-28T05:41:41.230Z,99.90
2018-09-28T05:44:09.720Z,99.90
2018-09-28T05:46:38.242Z,99.90
2018-09-28T05:49:06.767Z,99.90
2018-09-28T05:51:35.277Z,99.90
2018-09-28T05:54:03.680Z,99.90
2018-09-28T05:56:32.102Z,99.90
2018-09-28T05:59:05.814Z,99.90
2018-09-28T06:02:42.338Z,99.90
2018-09-28T06:05:16.081Z,99.90
2018-09-28T06:07:44.490Z,99.90
2018-09-28T06:10:12.924Z,99.90
2018-09-28T06:12:41.622Z,99.90
2018-09-28T06:15:10.046Z,99.90
2018-09-28T06:17:38.472Z,99.90
2018-09-28T06:20:07.914Z,99.90
2018-09-28T06:22:36.340Z,99.90
2018-09-28T06:25:04.770Z,99.90
2018-09-28T06:27:33.206Z,99.90
2018-09-28T06:30:01.639Z,99.90
2018-09-28T06:32:30.084Z,99.90
2018-09-28T06:34:58.888Z,99.90
2018-09-28T06:37:28.131Z,99.90
2018-09-28T06:39:56.693Z,99.90
2018-09-28T06:42:26.080Z,99.90
2018-09-28T06:44:54.616Z,99.90
2018-09-28T06:47:23.083Z,99.90
2018-09-28T06:49:51.599Z,99.90
2018-09-28T06:52:20.065Z,99.90
2018-09-28T06:54:48.539Z,99.90
2018-09-28T06:57:17.961Z,99.90
2018-09-28T06:59:46.611Z,99.90
2018-09-28T07:02:15.063Z,99.90
2018-09-28T07:04:43.851Z,99.90
2018-09-28T07:07:12.395Z,99.90
2018-09-28T07:09:40.928Z,99.90
2018-09-28T07:12:09.454Z,99.90
2018-09-28T07:14:37.858Z,99.90
2018-09-28T07:17:06.351Z,99.90
2018-09-28T07:19:34.826Z,99.90
2018-09-28T07:22:03.391Z,99.90
2018-09-28T07:24:31.873Z,99.90
2018-09-28T07:27:00.341Z,99.90
2018-09-28T07:29:28.789Z,99.90
2018-09-28T07:31:57.233Z,99.90
2018-09-28T07:34:25.799Z,99.90
2018-09-28T07:36:54.304Z,99.90
2018-09-28T07:39:22.695Z,99.90
2018-09-28T07:41:51.159Z,99.90
2018-09-28T07:44:19.581Z,99.90
2018-09-28T07:46:48.012Z,99.90
2018-09-28T07:49:17.158Z,99.90
2018-09-28T07:51:45.530Z,99.90
2018-09-28T07:54:14.062Z,99.90
2018-09-28T07:56:42.964Z,99.90
2018-09-28T07:59:11.391Z,99.90
2018-09-28T08:01:39.856Z,99.90
2018-09-28T08:04:08.537Z,99.90
2018-09-28T08:06:37.000Z,99.90
2018-09-28T08:09:07.692Z,99.90
2018-09-28T08:11:36.167Z,99.90
2018-09-28T08:14:04.817Z,99.90
2018-09-28T08:16:33.355Z,99.90
2018-09-28T08:19:01.819Z,99.90
2018-09-28T08:21:30.317Z,99.90
2018-09-28T08:23:58.939Z,99.90
2018-09-28T08:26:27.457Z,99.90
2018-09-28T08:28:56.031Z,99.90
2018-09-28T08:31:24.543Z,99.90
2018-09-28T08:33:53.574Z,99.90
2018-09-28T08:36:22.204Z,99.90
2018-09-28T08:38:50.525Z,99.90
2018-09-28T08:41:19.011Z,99.90
2018-09-28T08:43:47.510Z,99.90
2018-09-28T08:46:15.905Z,99.90
2018-09-28T08:48:44.345Z,99.90
2018-09-28T08:51:12.781Z,99.90
2018-09-28T08:53:41.219Z,99.90
2018-09-28T08:56:09.705Z,99.90
2018-09-28T08:58:38.133Z,99.90
2018-09-28T09:01:06.845Z,99.90
2018-09-28T09:03:35.312Z,99.90
2018-09-28T09:06:03.812Z,99.90
2018-09-28T09:08:32.271Z,99.90
2018-09-28T09:11:00.696Z,99.90
2018-09-28T09:13:29.128Z,99.90
2018-09-28T09:15:57.661Z,99.90
2018-09-28T09:18:26.215Z,99.90
2018-09-28T09:20:54.541Z,99.90
2018-09-28T09:23:22.968Z,99.90
2018-09-28T09:25:51.383Z,99.90
2018-09-28T09:28:20.148Z,99.90
2018-09-28T09:30:48.584Z,99.90
2018-09-28T09:33:17.012Z,99.90
2018-09-28T09:35:45.493Z,99.90
2018-09-28T09:38:13.986Z,99.90
2018-09-28T09:40:42.436Z,99.90
2018-09-28T09:43:10.955Z,99.90
2018-09-28T09:45:39.482Z,99.90
2018-09-28T09:48:07.950Z,99.90
2018-09-28T09:50:36.390Z,99.90
2018-09-28T09:53:04.830Z,99.90
2018-09-28T09:55:33.942Z,99.90
2018-09-28T09:58:02.405Z,99.90
2018-09-28T10:00:36.242Z,99.90
2018-09-28T10:03:10.034Z,99.90
2018-09-28T10:05:38.461Z,99.90
2018-09-28T10:08:06.897Z,99.90
2018-09-28T10:10:35.464Z,99.90
2018-09-28T10:13:03.920Z,99.90
2018-09-28T10:15:32.349Z,99.90
2018-09-28T10:18:00.788Z,99.90
2018-09-28T10:20:29.226Z,99.90
2018-09-28T10:22:57.670Z,99.90
2018-09-28T10:25:26.116Z,99.90
2018-09-28T10:27:54.631Z,99.90
2018-09-28T10:30:23.074Z,99.90
2018-09-28T10:32:51.588Z,99.90
2018-09-28T10:35:20.046Z,99.90
2018-09-28T10:37:48.525Z,99.90
2018-09-28T10:40:16.982Z,99.90
2018-09-28T10:42:45.417Z,99.90
2018-09-28T10:45:13.898Z,99.90
2018-09-28T10:47:42.339Z,99.90
2018-09-28T10:50:10.789Z,99.90
2018-09-28T10:52:39.426Z,99.90
2018-09-28T10:55:07.812Z,99.90
2018-09-28T10:57:36.251Z,99.60
2018-09-28T11:00:04.990Z,99.50
2018-09-28T11:02:33.471Z,98.20
2018-09-28T11:05:02.583Z,97.70
2018-09-28T11:07:31.283Z,97.00
2018-09-28T11:09:59.958Z,96.50
2018-09-28T11:12:28.379Z,97.00
2018-09-28T11:14:56.799Z,97.20
2018-09-28T11:17:25.222Z,97.20
2018-09-28T11:19:53.656Z,97.00
2018-09-28T11:22:22.087Z,96.30
2018-09-28T11:24:50.558Z,96.10
2018-09-28T11:27:19.035Z,95.40
2018-09-28T11:29:47.454Z,95.60
2018-09-28T11:32:16.299Z,95.20
2018-09-28T11:34:44.738Z,94.90
2018-09-28T11:37:13.182Z,93.80
2018-09-28T11:39:41.750Z,94.00
2018-09-28T11:42:10.168Z,91.90
2018-09-28T11:44:38.720Z,91.60
2018-09-28T11:47:07.135Z,91.80
2018-09-28T11:49:35.571Z,90.70
2018-09-28T11:52:04.016Z,90.90
2018-09-28T11:54:32.458Z,90.40
2018-09-28T11:57:01.665Z,90.60
2018-09-28T11:59:30.171Z,90.60
2018-09-28T12:01:59.301Z,89.30
2018-09-28T12:04:27.727Z,88.90
2018-09-28T12:06:56.224Z,88.70
2018-09-28T12:09:24.642Z,86.10
2018-09-28T12:11:53.481Z,87.30
2018-09-28T12:14:21.910Z,88.20
2018-09-28T12:16:50.347Z,87.20
2018-09-28T12:19:18.971Z,83.40
2018-09-28T12:21:47.520Z,81.10
2018-09-28T12:24:15.899Z,81.40
2018-09-28T12:26:44.316Z,81.60
2018-09-28T12:29:12.750Z,80.80
2018-09-28T12:31:41.177Z,80.80
2018-09-28T12:34:09.623Z,79.30
2018-09-28T12:36:38.087Z,78.80
2018-09-28T12:39:08.189Z,79.80
2018-09-28T12:41:36.645Z,79.50
2018-09-28T12:44:05.148Z,79.80
2018-09-28T12:46:33.629Z,78.70
2018-09-28T12:49:02.040Z,78.80
2018-09-28T12:51:30.512Z,80.10
2018-09-28T12:53:58.942Z,78.50
2018-09-28T12:56:27.765Z,77.70
2018-09-28T12:58:56.207Z,76.70
2018-09-28T13:01:25.241Z,74.30
2018-09-28T13:03:54.006Z,74.20
2018-09-28T13:06:22.460Z,70.80
2018-09-28T13:08:51.017Z,70.60
2018-09-28T13:11:19.414Z,71.00
2018-09-28T13:13:47.958Z,71.20
2018-09-28T13:16:16.390Z,73.70
2018-09-28T13:18:44.882Z,73.20
2018-09-28T13:21:13.344Z,74.00
2018-09-28T13:23:41.770Z,72.40
2018-09-28T13:26:10.277Z,72.10
2018-09-28T13:28:38.676Z,72.00
2018-09-28T13:31:07.288Z,71.50
2018-09-28T13:33:35.723Z,71.40
2018-09-28T13:36:04.446Z,72.30
2018-09-28T13:38:33.007Z,72.00
2018-09-28T13:41:01.968Z,71.50
2018-09-28T13:43:30.402Z,72.30
2018-09-28T13:45:58.916Z,74.00
2018-09-28T13:48:27.432Z,76.50
2018-09-28T13:50:55.781Z,74.90
2018-09-28T13:53:24.232Z,75.80
2018-09-28T13:55:52.704Z,74.80
2018-09-28T13:58:21.198Z,73.60
2018-09-28T14:00:49.699Z,75.10
2018-09-28T14:03:18.135Z,75.70
2018-09-28T14:05:46.587Z,76.10
2018-09-28T14:08:15.086Z,78.90
2018-09-28T14:10:43.509Z,78.30
2018-09-28T14:13:11.949Z,77.40
2018-09-28T14:15:40.387Z,76.10
2018-09-28T14:18:09.010Z,73.80
2018-09-28T14:20:37.435Z,69.90
2018-09-28T14:23:05.871Z,69.10
2018-09-28T14:25:34.320Z,69.70
2018-09-28T14:28:02.892Z,71.00
2018-09-28T14:30:31.300Z,71.90
2018-09-28T14:32:59.764Z,72.10
2018-09-28T14:35:28.232Z,72.20
2018-09-28T14:37:56.717Z,72.50
2018-09-28T14:40:25.243Z,72.00
2018-09-28T14:42:53.636Z,74.10
2018-09-28T14:45:22.332Z,75.30
2018-09-28T14:47:50.791Z,76.30
2018-09-28T14:50:19.300Z,75.30
2018-09-28T14:52:47.747Z,75.70
2018-09-28T14:55:16.180Z,75.60
2018-09-28T14:57:44.626Z,75.50
2018-09-28T15:00:13.083Z,74.80
2018-09-28T15:02:41.549Z,76.00
2018-09-28T15:05:10.584Z,73.90
2018-09-28T15:07:39.111Z,72.80
2018-09-28T15:10:07.896Z,74.40
2018-09-28T15:12:36.476Z,71.80
2018-09-28T15:15:04.940Z,72.80
2018-09-28T15:17:33.489Z,72.10
2018-09-28T15:20:01.936Z,73.10
2018-09-28T15:22:30.540Z,72.20
2018-09-28T15:24:59.040Z,71.70
2018-09-28T15:27:27.654Z,70.80
2018-09-28T15:29:56.120Z,71.20
2018-09-28T15:32:24.577Z,73.40
2018-09-28T15:34:53.033Z,75.30
2018-09-28T15:37:21.476Z,75.50
2018-09-28T15:39:49.926Z,73.50
2018-09-28T15:42:18.381Z,73.40
2018-09-28T15:44:46.807Z,72.10
2018-09-28T15:47:15.255Z,71.20
2018-09-28T15:49:43.707Z,71.50
2018-09-28T15:52:12.364Z,71.40
2018-09-28T15:54:40.915Z,71.00
2018-09-28T15:57:09.497Z,70.60
2018-09-28T15:59:37.936Z,68.60
2018-09-28T16:02:06.871Z,66.10
2018-09-28T16:04:35.405Z,62.10
2018-09-28T16:07:04.940Z,60.90
2018-09-28T16:09:34.126Z,60.90
2018-09-28T16:12:02.667Z,60.80
2018-09-28T16:14:31.658Z,59.40
2018-09-28T16:17:01.052Z,58.40
2018-09-28T16:19:29.674Z,59.10
2018-09-28T16:21:58.206Z,58.90
2018-09-28T16:24:26.923Z,59.10
2018-09-28T16:26:55.384Z,59.50
2018-09-28T16:29:24.079Z,59.40
2018-09-28T16:31:52.541Z,60.10
2018-09-28T16:34:21.240Z,61.00
2018-09-28T16:36:49.718Z,60.70
2018-09-28T16:39:18.505Z,60.60
2018-09-28T16:41:46.976Z,61.40
2018-09-28T16:44:15.396Z,61.10
2018-09-28T16:46:43.926Z,60.80
2018-09-28T16:49:12.366Z,61.50
2018-09-28T16:51:40.888Z,60.30
2018-09-28T16:54:09.495Z,61.20
2018-09-28T16:56:38.231Z,61.80
2018-09-28T16:59:06.968Z,63.20
2018-09-28T17:01:35.462Z,65.00
2018-09-28T17:04:03.961Z,66.50
2018-09-28T17:06:32.498Z,68.10
2018-09-28T17:09:01.092Z,69.40
2018-09-28T17:11:29.516Z,70.90
2018-09-28T17:13:58.566Z,72.70
2018-09-28T17:16:27.091Z,74.30
2018-09-28T17:18:55.527Z,76.50
2018-09-28T17:21:24.061Z,78.40
2018-09-28T17:23:52.559Z,79.60
2018-09-28T17:26:21.124Z,80.60
2018-09-28T17:28:49.680Z,81.10
2018-09-28T17:31:18.286Z,81.90
2018-09-28T17:33:46.855Z,81.90
2018-09-28T17:36:15.443Z,82.30
2018-09-28T17:38:44.008Z,82.90
2018-09-28T17:41:12.645Z,83.80
2018-09-28T17:43:41.108Z,84.70
2018-09-28T17:46:09.576Z,85.40
2018-09-28T17:48:38.028Z,86.00
2018-09-28T17:51:06.704Z,87.60
2018-09-28T17:53:35.311Z,88.10
2018-09-28T17:56:03.805Z,88.10
2018-09-28T17:58:32.274Z,88.30
2018-09-28T18:01:00.797Z,88.90
2018-09-28T18:03:29.516Z,89.50
2018-09-28T18:05:58.017Z,89.70
2018-09-28T18:08:26.525Z,90.00
2018-09-28T18:10:55.602Z,90.30
2018-09-28T18:13:24.092Z,90.50
2018-09-28T18:15:52.552Z,90.70
2018-09-28T18:18:20.985Z,90.80
2018-09-28T18:20:49.461Z,91.10
2018-09-28T18:23:17.930Z,91.30
2018-09-28T18:25:46.386Z,91.60
2018-09-28T18:28:16.379Z,92.00
2018-09-28T18:30:44.861Z,92.40
2018-09-28T18:33:13.747Z,92.80
2018-09-28T18:35:43.357Z,93.20
2018-09-28T18:38:11.911Z,93.40
2018-09-28T18:40:40.482Z,93.60
2018-09-28T18:43:09.298Z,93.70
2018-09-28T18:45:37.851Z,93.90
2018-09-28T18:48:06.501Z,94.00
2018-09-28T18:50:35.228Z,94.30
2018-09-28T18:53:04.944Z,94.30
2018-09-28T18:55:33.563Z,94.40
2018-09-28T18:58:03.114Z,94.50
2018-09-28T19:00:31.546Z,94.60
2018-09-28T19:03:00.191Z,94.90
2018-09-28T19:05:28.692Z,95.00
2018-09-28T19:08:03.916Z,95.30
2018-09-28T19:10:32.361Z,95.20
2018-09-28T19:13:00.793Z,95.20
2018-09-28T19:15:29.356Z,95.60
2018-09-28T19:17:57.802Z,95.80
2018-09-28T19:20:26.271Z,95.90
2018-09-28T19:22:54.865Z,96.30
2018-09-28T19:25:23.382Z,96.60
2018-09-28T19:27:51.925Z,96.70
2018-09-28T19:30:20.359Z,96.80
2018-09-28T19:32:48.811Z,96.90
2018-09-28T19:35:17.513Z,97.10
2018-09-28T19:37:46.490Z,97.10
2018-09-28T19:40:15.235Z,97.20
2018-09-28T19:42:44.445Z,97.30
2018-09-28T19:45:12.935Z,97.30
2018-09-28T19:47:41.424Z,97.30
2018-09-28T19:50:10.010Z,97.50
2018-09-28T19:52:38.448Z,97.50
2018-09-28T19:55:06.881Z,97.60
2018-09-28T19:57:35.416Z,97.50
2018-09-28T20:00:03.921Z,97.60
2018-09-28T20:02:32.391Z,97.60
2018-09-28T20:05:01.200Z,97.70
2018-09-28T20:07:30.159Z,97.80
2018-09-28T20:09:58.642Z,97.80
2018-09-28T20:12:27.105Z,97.90
2018-09-28T20:14:55.692Z,97.90
2018-09-28T20:17:24.178Z,97.90
2018-09-28T20:19:52.619Z,97.90
2018-09-28T20:22:21.212Z,98.00
2018-09-28T20:24:49.679Z,98.10
2018-09-28T20:27:18.235Z,98.20
2018-09-28T20:29:47.138Z,98.30
2018-09-28T20:32:15.649Z,98.40
2018-09-28T20:34:44.083Z,98.50
2018-09-28T20:37:12.522Z,98.60
2018-09-28T20:39:40.960Z,98.70
2018-09-28T20:42:09.411Z,98.80
2018-09-28T20:44:37.888Z,98.90
2018-09-28T20:47:06.400Z,98.90
2018-09-28T20:49:34.854Z,99.00
2018-09-28T20:52:03.311Z,99.20
2018-09-28T20:54:31.775Z,99.50
2018-09-28T20:57:01.698Z,99.70
2018-09-28T20:59:30.270Z,99.90
2018-09-28T21:01:58.831Z,99.90
2018-09-28T21:04:27.516Z,99.90
2018-09-28T21:06:56.901Z,99.90
2018-09-28T21:09:26.564Z,99.80
2018-09-28T21:11:55.014Z,99.80
2018-09-28T21:14:23.442Z,99.90
2018-09-28T21:16:51.884Z,99.90
2018-09-28T21:19:20.295Z,99.90
2018-09-28T21:21:48.720Z,99.90
2018-09-28T21:24:17.170Z,99.90
2018-09-28T21:26:45.596Z,99.90
2018-09-28T21:29:14.131Z,99.90
2018-09-28T21:31:42.658Z,99.90
2018-09-28T21:34:11.430Z,99.90
2018-09-28T21:36:40.684Z,99.90
2018-09-28T21:39:10.375Z,99.90
2018-09-28T21:41:39.139Z,99.90
2018-09-28T21:44:08.191Z,99.80
2018-09-28T21:46:37.633Z,99.90
2018-09-28T21:49:06.167Z,99.90
2018-09-28T21:51:34.648Z,99.90
2018-09-28T21:54:03.195Z,99.90
2018-09-28T21:56:31.875Z,99.90
2018-09-28T21:59:00.303Z,99.90
2018-09-28T22:01:28.738Z,99.90
2018-09-28T22:03:57.186Z,99.90
2018-09-28T22:06:25.621Z,99.90
2018-09-28T22:08:54.036Z,99.90
2018-09-28T22:11:22.535Z,99.90
2018-09-28T22:13:50.987Z,99.90
2018-09-28T22:16:19.386Z,99.90
2018-09-28T22:18:47.817Z,99.90
2018-09-28T22:21:16.253Z,99.90
2018-09-28T22:23:44.794Z,99.90
2018-09-28T22:26:13.225Z,99.90
2018-09-28T22:28:41.861Z,99.90
2018-09-28T22:31:10.304Z,99.90
2018-09-28T22:33:39.733Z,99.90
2018-09-28T22:36:08.229Z,99.90
2018-09-28T22:38:38.161Z,99.90
2018-09-28T22:41:06.590Z,99.90
2018-09-28T22:43:35.026Z,99.90
2018-09-28T22:46:03.500Z,99.90
2018-09-28T22:48:31.950Z,99.90
2018-09-28T22:51:00.456Z,99.90
2018-09-28T22:53:28.883Z,99.90
2018-09-28T22:55:57.310Z,99.90
2018-09-28T22:58:26.829Z,99.90
2018-09-28T23:00:55.256Z,99.90
2018-09-28T23:03:23.652Z,99.90
2018-09-28T23:05:52.087Z,99.90
2018-09-28T23:08:20.620Z,99.90
2018-09-28T23:10:49.085Z,99.90
2018-09-28T23:13:18.067Z,99.90
2018-09-28T23:15:46.530Z,99.90
2018-09-28T23:18:14.983Z,99.90
2018-09-28T23:20:43.424Z,99.90
2018-09-28T23:23:11.831Z,99.90
2018-09-28T23:25:40.286Z,99.90
2018-09-28T23:28:08.811Z,99.90
2018-09-28T23:30:37.259Z,99.90
2018-09-28T23:33:05.716Z,99.90
2018-09-28T23:35:34.173Z,99.90
2018-09-28T23:38:02.599Z,99.90
2018-09-28T23:40:31.012Z,99.90
2018-09-28T23:42:59.545Z,99.90
2018-09-28T23:45:28.089Z,99.90
2018-09-28T23:47:56.526Z,99.90
2018-09-28T23:50:24.954Z,99.90
2018-09-28T23:52:53.397Z,99.90
2018-09-28T23:55:21.876Z,99.90
2018-09-28T23:57:50.338Z,99.90
